Terminal Aerodrome Forecast
Issued by NWS Glasgow, MT

Home | Current Version | Previous Version | Text Only | Print | Product List | Glossary On
Versions: 1 2 3 4 5 6 7 8 9 10 11 12 13
000
FTUS45 KGGW 210520
TAFGGW
TAF
KGGW 210520Z 2106/2206 VRB03KT P6SM FEW160
     FM210900 VRB03KT 4SM BR SCT160
     FM211500 25004KT 3SM BR FEW050
     FM211800 24006KT P6SM FEW050
     FM220000 VRB05KT P6SM FEW025=

USA.gov is the U.S. government's official web portal to all federal, state and local government web resources and services.